Hammond, Montana
Current Conditions -  °F | °C
As of 11:53 AM on Tuesday 27 Jan 2015 (Local Time) from KGCC Reporting Station
Clear Clear  
Wind Chill: 62°   Ceiling: Unl
Heat Index: 62°   Visibility: 10mi
Dew Point: 31°   Wind: 16mph
Humidity: 31%   Direction: 230°SW
Pressure: 29.97"   Gusts: NA
Location:  45.23°N, 104.92°W
Report Text: KGCC 271853Z AUTO 23014KT 10SM CLR 17/M01 A2997 RMK AO2 SLP124 T01671006 TSNO
Loading
Personal Weather Stations






























Interactive Weather Map New forecast layout! Learn more

10-Day Weather Forecast

Advertisements
Track Severe Weather on mobile